TimeCDT,TemperatureF,Dew PointF,Humidity,Sea Level PressureIn,VisibilityMPH,Wind Direction,Wind SpeedMPH,Gust SpeedMPH,PrecipitationIn,Events,Conditions,WindDirDegrees,DateUTC
12:09 AM,37.4,35.6,93,29.86,10.0,Calm,Calm,-,N/A,,Clear,0,2012-10-03 05:09:00
12:29 AM,37.4,35.6,93,29.86,10.0,Calm,Calm,-,N/A,,Clear,0,2012-10-03 05:29:00
12:50 AM,37.4,35.6,93,29.86,10.0,Calm,Calm,-,N/A,,Clear,0,2012-10-03 05:50:00
1:09 AM,37.4,35.6,93,29.86,10.0,Calm,Calm,-,N/A,,Clear,0,2012-10-03 06:09:00
1:29 AM,37.4,35.6,93,29.87,10.0,Calm,Calm,-,N/A,,Clear,0,2012-10-03 06:29:00
1:49 AM,35.6,33.8,93,29.87,10.0,Calm,Calm,-,N/A,,Clear,0,2012-10-03 06:49:00
2:09 AM,35.6,33.8,93,29.87,10.0,Calm,Calm,-,N/A,,Clear,0,2012-10-03 07:09:00
2:30 AM,35.6,32.0,87,29.87,10.0,Calm,Calm,-,N/A,,Clear,0,2012-10-03 07:30:00
2:49 AM,35.6,32.0,87,29.86,10.0,Calm,Calm,-,N/A,,Clear,0,2012-10-03 07:49:00
3:09 AM,33.8,32.0,93,29.86,1.2,Calm,Calm,-,N/A,,Mist,0,2012-10-03 08:09:00
3:30 AM,33.8,32.0,93,29.86,10.0,Calm,Calm,-,N/A,,Clear,0,2012-10-03 08:30:00
3:49 AM,33.8,32.0,93,29.86,0.8,Calm,Calm,-,N/A,,Mist,0,2012-10-03 08:49:00
4:09 AM,32.0,32.0,100,29.86,1.2,Calm,Calm,-,N/A,,Mist,0,2012-10-03 09:09:00
4:30 AM,32.0,32.0,100,29.86,10.0,Calm,Calm,-,N/A,,Clear,0,2012-10-03 09:30:00
4:49 AM,33.8,32.0,93,29.86,1.8,Calm,Calm,-,N/A,,Mist,0,2012-10-03 09:49:00
5:09 AM,32.0,32.0,100,29.86,1.0,Calm,Calm,-,N/A,,Mist,0,2012-10-03 10:09:00
5:30 AM,32.0,32.0,100,29.87,1.0,Calm,Calm,-,N/A,,Mist,0,2012-10-03 10:30:00
5:49 AM,32.0,32.0,100,29.87,5.0,Calm,Calm,-,N/A,,Clear,0,2012-10-03 10:49:00
6:09 AM,32.0,32.0,100,29.88,10.0,Calm,Calm,-,N/A,,Clear,0,2012-10-03 11:09:00
6:30 AM,32.0,32.0,100,29.89,10.0,Calm,Calm,-,N/A,,Clear,0,2012-10-03 11:30:00
6:49 AM,32.0,32.0,100,29.89,7.0,Calm,Calm,-,N/A,,Clear,0,2012-10-03 11:49:00
7:09 AM,32.0,32.0,100,29.89,10.0,Calm,Calm,-,N/A,,Clear,0,2012-10-03 12:09:00
7:30 AM,32.0,32.0,100,29.90,1.0,Calm,Calm,-,N/A,,Mist,0,2012-10-03 12:30:00
7:49 AM,32.0,32.0,100,29.91,3.0,Calm,Calm,-,N/A,,Clear,0,2012-10-03 12:49:00
8:09 AM,33.8,32.0,93,29.91,10.0,Calm,Calm,-,N/A,,Clear,0,2012-10-03 13:09:00
8:30 AM,37.4,35.6,93,29.91,7.0,Calm,Calm,-,N/A,,Clear,0,2012-10-03 13:30:00
8:49 AM,42.8,41.0,93,29.91,10.0,Calm,Calm,-,N/A,,Clear,0,2012-10-03 13:49:00
9:09 AM,44.6,41.0,87,29.90,10.0,Calm,Calm,-,N/A,,Clear,0,2012-10-03 14:09:00
9:29 AM,48.2,39.2,71,29.91,10.0,Calm,Calm,-,N/A,,Clear,0,2012-10-03 14:29:00
9:49 AM,53.6,42.8,67,29.91,10.0,Calm,Calm,-,N/A,,Clear,0,2012-10-03 14:49:00
10:10 AM,53.6,41.0,62,29.92,10.0,Calm,Calm,-,N/A,,Clear,0,2012-10-03 15:10:00
10:29 AM,55.4,41.0,58,29.92,10.0,Calm,Calm,-,N/A,,Clear,0,2012-10-03 15:29:00
10:50 AM,59.0,41.0,51,29.92,10.0,Calm,Calm,-,N/A,,Clear,0,2012-10-03 15:50:00
11:09 AM,60.8,41.0,48,29.91,10.0,Calm,Calm,-,N/A,,Clear,0,2012-10-03 16:09:00
11:29 AM,62.6,41.0,45,29.91,10.0,Calm,Calm,-,N/A,,Clear,0,2012-10-03 16:29:00
11:50 AM,62.6,39.2,42,29.91,10.0,SSE,3.5,-,N/A,,Clear,150,2012-10-03 16:50:00
12:09 PM,64.4,39.2,40,29.91,10.0,Calm,Calm,-,N/A,,Clear,0,2012-10-03 17:09:00
12:50 PM,68.0,37.4,33,29.90,10.0,Calm,Calm,-,N/A,,Clear,0,2012-10-03 17:50:00
1:09 PM,69.8,37.4,31,29.89,10.0,SSE,3.5,-,N/A,,Clear,150,2012-10-03 18:09:00
1:29 PM,69.8,37.4,31,29.88,7.0,Calm,Calm,-,N/A,,Clear,0,2012-10-03 18:29:00
1:50 PM,73.4,41.0,31,29.88,7.0,Calm,Calm,-,N/A,,Clear,0,2012-10-03 18:50:00
2:09 PM,73.4,41.0,31,29.88,10.0,Calm,Calm,-,N/A,,Clear,0,2012-10-03 19:09:00
2:29 PM,73.4,39.2,29,29.88,10.0,Calm,Calm,-,N/A,,Clear,0,2012-10-03 19:29:00
2:50 PM,-9999,-9999,N/A,-9999,10.0,ENE,4.6,-,N/A,,Unknown,70,2012-10-03 19:50:00
3:09 PM,73.4,39.2,29,29.88,10.0,WNW,4.6,-,N/A,,Clear,300,2012-10-03 20:09:00
3:29 PM,73.4,41.0,31,29.88,10.0,NW,4.6,-,N/A,,Clear,320,2012-10-03 20:29:00
3:50 PM,73.4,37.4,27,29.88,10.0,North,3.5,-,N/A,,Clear,360,2012-10-03 20:50:00
4:09 PM,73.4,37.4,27,29.88,10.0,NW,3.5,-,N/A,,Clear,320,2012-10-03 21:09:00
4:29 PM,73.4,37.4,27,29.88,10.0,NNE,4.6,-,N/A,,Clear,30,2012-10-03 21:29:00
4:50 PM,73.4,39.2,29,29.88,10.0,NNE,3.5,-,N/A,,Clear,20,2012-10-03 21:50:00
5:09 PM,73.4,37.4,27,29.88,10.0,Calm,Calm,-,N/A,,Clear,0,2012-10-03 22:09:00
5:29 PM,73.4,39.2,29,29.88,10.0,NNE,3.5,-,N/A,,Clear,30,2012-10-03 22:29:00
5:50 PM,68.0,41.0,37,29.88,10.0,ENE,3.5,-,N/A,,Clear,60,2012-10-03 22:50:00
6:09 PM,64.4,41.0,42,29.89,10.0,East,3.5,-,N/A,,Clear,90,2012-10-03 23:09:00
6:29 PM,62.6,41.0,45,29.90,10.0,NNE,3.5,-,N/A,,Clear,20,2012-10-03 23:29:00
6:50 PM,62.6,41.0,45,29.90,10.0,ENE,3.5,-,N/A,,Clear,60,2012-10-03 23:50:00
7:09 PM,60.8,41.0,48,29.91,10.0,NE,4.6,-,N/A,,Clear,50,2012-10-04 00:09:00
7:30 PM,62.6,41.0,45,29.91,10.0,NNE,4.6,-,N/A,,Scattered Clouds,30,2012-10-04 00:30:00
7:50 PM,60.8,41.0,48,29.91,10.0,NE,5.8,-,N/A,,Mostly Cloudy,40,2012-10-04 00:50:00
8:09 PM,62.6,42.8,48,29.91,7.0,NNE,8.1,-,N/A,,Scattered Clouds,30,2012-10-04 01:09:00
8:30 PM,-9999,-9999,N/A,-9999,7.0,NNE,5.8,-,N/A,,Unknown,20,2012-10-04 01:30:00
8:50 PM,60.8,42.8,52,29.91,5.0,NNE,5.8,-,N/A,,Haze,30,2012-10-04 01:50:00
9:30 PM,60.8,42.8,52,29.91,7.0,NE,3.5,-,N/A,,Clear,50,2012-10-04 02:30:00
9:49 PM,59.0,42.8,55,29.92,7.0,Calm,Calm,-,N/A,,Scattered Clouds,0,2012-10-04 02:49:00
10:10 PM,59.0,44.6,59,29.92,7.0,Calm,Calm,-,N/A,,Scattered Clouds,0,2012-10-04 03:10:00
10:30 PM,59.0,44.6,59,29.92,7.0,NNE,3.5,-,N/A,,Clear,20,2012-10-04 03:30:00
10:49 PM,59.0,42.8,55,29.92,7.0,NE,3.5,-,N/A,,Scattered Clouds,40,2012-10-04 03:49:00
11:10 PM,59.0,44.6,59,29.91,7.0,NE,3.5,-,N/A,,Mostly Cloudy,50,2012-10-04 04:10:00
11:30 PM,59.0,44.6,59,29.91,7.0,ENE,3.5,-,N/A,,Scattered Clouds,70,2012-10-04 04:30:00
11:49 PM,55.4,42.8,63,29.91,10.0,NNE,3.5,-,N/A,,Clear,30,2012-10-04 04:49:00